Terminal Aerodrome Forecast
Issued by NWS

Home | Current Version | Previous Version | Text Only | Print | Product List | Glossary On
Versions: 1 2 3 4 5 6 7 8 9 10 11 12 13 14 15 16 17 18 19 20 21 22 23 24 25 26 27 28 29 30 31 32 33 34 35 36
000
FTUS41 KOKX 292134 AAB
TAFGON
TAF AMD
KGON 292134Z 2922/3018 07017G24KT P6SM FEW035 OVC120
      TEMPO 2922/2924 BKN035
     FM300000 06021G28KT P6SM OVC035
     FM300700 05025G33KT P6SM OVC035
     FM301300 05021G28KT P6SM OVC025
     FM301600 06020G28KT P6SM -RA OVC015=

USA.gov is the U.S. government's official web portal to all federal, state and local government web resources and services.